Christos Xxxvii — SVA6992 — position and weather

sailwx.info

Track history (hours):
 
Tides and Currents Weather Stations Pressure Air Temp Water Temp Dewpoint Dewpoint Depression Visibility Wind Speed Wind Dir Waves Ship Positions

Christos Xxxvii

Last reported at 2018-Jan-21 08:38 UTC. Time now 2018-Jan-22 02:49 UTC.
Position N 37°58' E 023°33'.

Length 26 m.

Type: Tug. MMSI: 239951200.

Date/timePositionNaut miles runAvg speedWind from/ knotsBaromVisibWave heightAir tempDewpointWater temp
2018-Jan-21 08:38N 37°58' E 023°33'2 9.1
2018-Jan-21 08:23N 37°60' E 023°33'3 2.5
2018-Jan-21 07:19N 38°02' E 023°36'0 0.5
2018-Jan-21 06:58N 38°02' E 023°35'0 0.1
2018-Jan-21 05:40N 38°01' E 023°35'0 0.0
2018-Jan-21 05:28N 38°01' E 023°35'0 0.0
2018-Jan-21 04:52N 38°01' E 023°35'0 0.0
2018-Jan-21 04:28N 38°01' E 023°35'0 0.0
2018-Jan-21 02:52N 38°01' E 023°35'0 0.0
2018-Jan-21 01:01N 38°01' E 023°35'0 0.0
2018-Jan-21 00:58N 38°01' E 023°35'0 0.0
2018-Jan-21 00:19N 38°01' E 023°35'0 0.0
2018-Jan-20 23:37N 38°01' E 023°35'0 0.0
2018-Jan-20 16:59N 38°02' E 023°36'0 0.0
2018-Jan-20 14:47N 38°02' E 023°36'0 0.0
2018-Jan-20 14:29N 38°02' E 023°36'0 0.0
2018-Jan-20 13:59N 38°02' E 023°36'0 0.0
2018-Jan-20 13:29N 38°02' E 023°36'0 0.0
2018-Jan-20 12:59N 38°02' E 023°36'0 0.0
2018-Jan-20 12:23N 38°02' E 023°36'0 0.0
2018-Jan-20 10:12N 38°02' E 023°36'0 0.5
2018-Jan-20 09:58N 38°02' E 023°36'1 1.2
2018-Jan-20 09:29N 38°01' E 023°35'0 0.2
2018-Jan-20 08:25N 38°01' E 023°35'0 0.5
2018-Jan-20 07:52N 38°02' E 023°36'3 7.7
2018-Jan-20 07:25N 37°59' E 023°33'1 2.9
2018-Jan-20 06:58N 37°58' E 023°33'0 0.6
2018-Jan-20 06:25N 37°58' E 023°33'0 0.0
2018-Jan-20 05:52N 37°58' E 023°33'0 0.0
2018-Jan-20 05:28N 37°58' E 023°33'0 0.0
2018-Jan-19 18:11N 37°58' E 023°33'1 4.0
2018-Jan-19 18:00N 37°58' E 023°33'4 7.2
2018-Jan-19 17:28N 38°02' E 023°36'1 1.8
2018-Jan-19 16:58N 38°01' E 023°35'4 8.4
2018-Jan-19 16:30N 37°57' E 023°34'1 2.6
2018-Jan-19 15:59N 37°57' E 023°36'1 1.4
2018-Jan-19 15:28N 37°56' E 023°36'2 3.8
2018-Jan-19 15:00N 37°56' E 023°38'0 0.7
2018-Jan-19 14:28N 37°57' E 023°39'1 1.7
2018-Jan-19 14:00N 37°56' E 023°38'2 3.2
2018-Jan-19 13:28N 37°57' E 023°36'0 0.2
2018-Jan-19 13:00N 37°57' E 023°36'2 4.0
2018-Jan-19 12:30N 37°56' E 023°38'4 7.4
2018-Jan-19 11:58N 37°58' E 023°33'0 0.0
2018-Jan-19 11:19N 37°58' E 023°33'0 0.0
2018-Jan-19 10:58N 37°58' E 023°33'0 0.0
2018-Jan-19 10:28N 37°58' E 023°33'1 1.1
2018-Jan-19 10:00N 37°57' E 023°34'0 0.8
2018-Jan-19 09:29N 37°58' E 023°33'1 2.3
2018-Jan-19 09:00N 37°59' E 023°33'3 5.9
2018-Jan-19 08:30N 38°01' E 023°31'1 2.2
2018-Jan-19 07:55N 38°02' E 023°30'0 0.2
2018-Jan-19 07:21N 38°02' E 023°30'3 7.4
2018-Jan-19 07:00N 38°00' E 023°32'2 4.8
2018-Jan-19 06:29N 37°58' E 023°33'0 0.0
2018-Jan-19 05:56N 37°58' E 023°33'0 0.0
2018-Jan-19 05:26N 37°58' E 023°33'0 0.0
2018-Jan-18 20:16N 37°58' E 023°33'2 5.7
2018-Jan-18 19:59N 37°59' E 023°33'3 3.6
2018-Jan-18 19:10N 38°01' E 023°36'0 1.6
2018-Jan-18 18:53N 38°01' E 023°35'1 2.9
2018-Jan-18 18:28N 38°01' E 023°34'3 6.0
2018-Jan-18 17:59N 38°02' E 023°30'0 0.0
2018-Jan-18 17:29N 38°02' E 023°30'0 0.0
2018-Jan-18 16:59N 38°02' E 023°30'0 0.0
2018-Jan-18 16:29N 38°02' E 023°30'0 0.0
2018-Jan-18 15:59N 38°02' E 023°30'0 0.5
2018-Jan-18 15:29N 38°02' E 023°31'2 3.0
2018-Jan-18 14:59N 38°01' E 023°33'0 0.0
2018-Jan-18 14:29N 38°01' E 023°33'0 0.0
2018-Jan-18 13:59N 38°01' E 023°33'0 0.1
2018-Jan-18 13:29N 38°02' E 023°33'2 3.9
2018-Jan-18 13:00N 38°01' E 023°35'1 0.9
2018-Jan-18 12:23N 38°02' E 023°35'0 0.0
2018-Jan-18 06:51N 38°01' E 023°35'1 1.4
2018-Jan-18 06:25N 38°02' E 023°35'0 0.0
2018-Jan-18 05:52N 38°02' E 023°35'0 0.0
2018-Jan-18 05:28N 38°02' E 023°35'0 0.0
2018-Jan-18 04:58N 38°02' E 023°35'0 0.0
2018-Jan-18 04:28N 38°02' E 023°35'0 0.0
2018-Jan-18 03:52N 38°02' E 023°35'0 0.0
2018-Jan-18 03:28N 38°02' E 023°35'0 0.0
2018-Jan-18 02:49N 38°02' E 023°35'0 0.0
2018-Jan-18 02:28N 38°02' E 023°35'0 0.0
2018-Jan-18 01:52N 38°02' E 023°35'0 0.0
2018-Jan-18 01:23N 38°02' E 023°35'0 0.0
2018-Jan-18 00:59N 38°02' E 023°35'  
2018-Jan-11 19:18N 38°02' E 023°35'0 0.5
2018-Jan-11 18:55N 38°02' E 023°36'2 5.9
2018-Jan-11 18:30N 38°00' E 023°33'3 4.5
2018-Jan-11 17:55N 37°58' E 023°33'0 0.2
2018-Jan-11 17:25N 37°58' E 023°33'1 2.8
2018-Jan-11 17:00N 37°57' E 023°35'4 7.2
2018-Jan-11 16:29N 37°56' E 023°39'0 0.8
2018-Jan-11 16:00N 37°56' E 023°39'3 7.0
2018-Jan-11 15:30N 37°57' E 023°35'1 2.8
2018-Jan-11 14:59N 37°58' E 023°33'0 0.0
2018-Jan-11 14:30N 37°58' E 023°33'0 0.2
2018-Jan-11 13:57N 37°57' E 023°33'0 0.2
2018-Jan-11 13:30N 37°57' E 023°33'0 0.6
2018-Jan-11 13:00N 37°57' E 023°33'2 4.5
2018-Jan-11 12:30N 37°57' E 023°36'0 0.3
2018-Jan-11 12:00N 37°57' E 023°36'0 0.1
2018-Jan-11 11:30N 37°57' E 023°36'2 3.1
2018-Jan-11 11:00N 37°57' E 023°34'1 2.0
2018-Jan-11 10:30N 37°58' E 023°33'0 0.0
2018-Jan-11 10:00N 37°58' E 023°33'2 3.1
2018-Jan-11 09:30N 37°59' E 023°33'3 5.9
2018-Jan-11 09:00N 38°02' E 023°36'  
Track history (hours):
 
Tides and Currents Weather Stations Pressure Air Temp Water Temp Dewpoint Dewpoint Depression Visibility Wind Speed Wind Dir Waves Ship Positions

Christos Xxxvii

Last reported at 2018-Jan-21 08:38 UTC. Time now 2018-Jan-22 02:49 UTC.
Position N 37°58' E 023°33'.

Length 26 m.

Type: Tug. MMSI: 239951200.

Date/timePositionNaut miles runAvg speedWind from/ knotsBaromVisibWave heightAir tempDewpointWater temp
2018-Jan-21 08:38N 37°58' E 023°33'2 9.1
2018-Jan-21 08:23N 37°60' E 023°33'3 2.5
2018-Jan-21 07:19N 38°02' E 023°36'0 0.5
2018-Jan-21 06:58N 38°02' E 023°35'0 0.1
2018-Jan-21 05:40N 38°01' E 023°35'0 0.0
2018-Jan-21 05:28N 38°01' E 023°35'0 0.0
2018-Jan-21 04:52N 38°01' E 023°35'0 0.0
2018-Jan-21 04:28N 38°01' E 023°35'0 0.0
2018-Jan-21 02:52N 38°01' E 023°35'0 0.0
2018-Jan-21 01:01N 38°01' E 023°35'0 0.0
2018-Jan-21 00:58N 38°01' E 023°35'0 0.0
2018-Jan-21 00:19N 38°01' E 023°35'0 0.0
2018-Jan-20 23:37N 38°01' E 023°35'0 0.0
2018-Jan-20 16:59N 38°02' E 023°36'0 0.0
2018-Jan-20 14:47N 38°02' E 023°36'0 0.0
2018-Jan-20 14:29N 38°02' E 023°36'0 0.0
2018-Jan-20 13:59N 38°02' E 023°36'0 0.0
2018-Jan-20 13:29N 38°02' E 023°36'0 0.0
2018-Jan-20 12:59N 38°02' E 023°36'0 0.0
2018-Jan-20 12:23N 38°02' E 023°36'0 0.0
2018-Jan-20 10:12N 38°02' E 023°36'0 0.5
2018-Jan-20 09:58N 38°02' E 023°36'1 1.2
2018-Jan-20 09:29N 38°01' E 023°35'0 0.2
2018-Jan-20 08:25N 38°01' E 023°35'0 0.5
2018-Jan-20 07:52N 38°02' E 023°36'3 7.7
2018-Jan-20 07:25N 37°59' E 023°33'1 2.9
2018-Jan-20 06:58N 37°58' E 023°33'0 0.6
2018-Jan-20 06:25N 37°58' E 023°33'0 0.0
2018-Jan-20 05:52N 37°58' E 023°33'0 0.0
2018-Jan-20 05:28N 37°58' E 023°33'0 0.0
2018-Jan-19 18:11N 37°58' E 023°33'1 4.0
2018-Jan-19 18:00N 37°58' E 023°33'4 7.2
2018-Jan-19 17:28N 38°02' E 023°36'1 1.8
2018-Jan-19 16:58N 38°01' E 023°35'4 8.4
2018-Jan-19 16:30N 37°57' E 023°34'1 2.6
2018-Jan-19 15:59N 37°57' E 023°36'1 1.4
2018-Jan-19 15:28N 37°56' E 023°36'2 3.8
2018-Jan-19 15:00N 37°56' E 023°38'0 0.7
2018-Jan-19 14:28N 37°57' E 023°39'1 1.7
2018-Jan-19 14:00N 37°56' E 023°38'2 3.2
2018-Jan-19 13:28N 37°57' E 023°36'0 0.2
2018-Jan-19 13:00N 37°57' E 023°36'2 4.0
2018-Jan-19 12:30N 37°56' E 023°38'4 7.4
2018-Jan-19 11:58N 37°58' E 023°33'0 0.0
2018-Jan-19 11:19N 37°58' E 023°33'0 0.0
2018-Jan-19 10:58N 37°58' E 023°33'0 0.0
2018-Jan-19 10:28N 37°58' E 023°33'1 1.1
2018-Jan-19 10:00N 37°57' E 023°34'0 0.8
2018-Jan-19 09:29N 37°58' E 023°33'1 2.3
2018-Jan-19 09:00N 37°59' E 023°33'3 5.9
2018-Jan-19 08:30N 38°01' E 023°31'1 2.2
2018-Jan-19 07:55N 38°02' E 023°30'0 0.2
2018-Jan-19 07:21N 38°02' E 023°30'3 7.4
2018-Jan-19 07:00N 38°00' E 023°32'2 4.8
2018-Jan-19 06:29N 37°58' E 023°33'0 0.0
2018-Jan-19 05:56N 37°58' E 023°33'0 0.0
2018-Jan-19 05:26N 37°58' E 023°33'0 0.0
2018-Jan-18 20:16N 37°58' E 023°33'2 5.7
2018-Jan-18 19:59N 37°59' E 023°33'3 3.6
2018-Jan-18 19:10N 38°01' E 023°36'0 1.6
2018-Jan-18 18:53N 38°01' E 023°35'1 2.9
2018-Jan-18 18:28N 38°01' E 023°34'3 6.0
2018-Jan-18 17:59N 38°02' E 023°30'0 0.0
2018-Jan-18 17:29N 38°02' E 023°30'0 0.0
2018-Jan-18 16:59N 38°02' E 023°30'0 0.0
2018-Jan-18 16:29N 38°02' E 023°30'0 0.0
2018-Jan-18 15:59N 38°02' E 023°30'0 0.5
2018-Jan-18 15:29N 38°02' E 023°31'2 3.0
2018-Jan-18 14:59N 38°01' E 023°33'0 0.0
2018-Jan-18 14:29N 38°01' E 023°33'0 0.0
2018-Jan-18 13:59N 38°01' E 023°33'0 0.1
2018-Jan-18 13:29N 38°02' E 023°33'2 3.9
2018-Jan-18 13:00N 38°01' E 023°35'1 0.9
2018-Jan-18 12:23N 38°02' E 023°35'0 0.0
2018-Jan-18 06:51N 38°01' E 023°35'1 1.4
2018-Jan-18 06:25N 38°02' E 023°35'0 0.0
2018-Jan-18 05:52N 38°02' E 023°35'0 0.0
2018-Jan-18 05:28N 38°02' E 023°35'0 0.0
2018-Jan-18 04:58N 38°02' E 023°35'0 0.0
2018-Jan-18 04:28N 38°02' E 023°35'0 0.0
2018-Jan-18 03:52N 38°02' E 023°35'0 0.0
2018-Jan-18 03:28N 38°02' E 023°35'0 0.0
2018-Jan-18 02:49N 38°02' E 023°35'0 0.0
2018-Jan-18 02:28N 38°02' E 023°35'0 0.0
2018-Jan-18 01:52N 38°02' E 023°35'0 0.0
2018-Jan-18 01:23N 38°02' E 023°35'0 0.0
2018-Jan-18 00:59N 38°02' E 023°35'  
2018-Jan-11 19:18N 38°02' E 023°35'0 0.5
2018-Jan-11 18:55N 38°02' E 023°36'2 5.9
2018-Jan-11 18:30N 38°00' E 023°33'3 4.5
2018-Jan-11 17:55N 37°58' E 023°33'0 0.2
2018-Jan-11 17:25N 37°58' E 023°33'1 2.8
2018-Jan-11 17:00N 37°57' E 023°35'4 7.2
2018-Jan-11 16:29N 37°56' E 023°39'0 0.8
2018-Jan-11 16:00N 37°56' E 023°39'3 7.0
2018-Jan-11 15:30N 37°57' E 023°35'1 2.8
2018-Jan-11 14:59N 37°58' E 023°33'0 0.0
2018-Jan-11 14:30N 37°58' E 023°33'0 0.2
2018-Jan-11 13:57N 37°57' E 023°33'0 0.2
2018-Jan-11 13:30N 37°57' E 023°33'0 0.6
2018-Jan-11 13:00N 37°57' E 023°33'2 4.5
2018-Jan-11 12:30N 37°57' E 023°36'0 0.3
2018-Jan-11 12:00N 37°57' E 023°36'0 0.1
2018-Jan-11 11:30N 37°57' E 023°36'2 3.1
2018-Jan-11 11:00N 37°57' E 023°34'1 2.0
2018-Jan-11 10:30N 37°58' E 023°33'0 0.0
2018-Jan-11 10:00N 37°58' E 023°33'2 3.1
2018-Jan-11 09:30N 37°59' E 023°33'3 5.9
2018-Jan-11 09:00N 38°02' E 023°36'  

Dump ship's entire track history